sensor_id;sensor_type;location;lat;lon;timestamp;temperature;humidity
43227;DHT22;28839;52.404;9.808;2023-08-06T00:05:33;14.00;99.90
43227;DHT22;28839;52.404;9.808;2023-08-06T00:12:27;14.00;99.90
43227;DHT22;28839;52.404;9.808;2023-08-06T00:19:22;14.00;99.90
43227;DHT22;28839;52.404;9.808;2023-08-06T00:26:16;14.00;99.90
43227;DHT22;28839;52.404;9.808;2023-08-06T00:33:10;14.10;99.90
43227;DHT22;28839;52.404;9.808;2023-08-06T00:40:06;14.10;99.90
43227;DHT22;28839;52.404;9.808;2023-08-06T00:47:01;14.20;99.90
43227;DHT22;28839;52.404;9.808;2023-08-06T00:53:55;14.20;99.90
43227;DHT22;28839;52.404;9.808;2023-08-06T01:00:50;14.20;99.90
43227;DHT22;28839;52.404;9.808;2023-08-06T01:07:51;14.30;99.90
43227;DHT22;28839;52.404;9.808;2023-08-06T01:14:57;14.30;99.90
43227;DHT22;28839;52.404;9.808;2023-08-06T01:21:54;14.20;99.90
43227;DHT22;28839;52.404;9.808;2023-08-06T01:28:54;14.20;99.90
43227;DHT22;28839;52.404;9.808;2023-08-06T01:35:50;14.20;99.90
43227;DHT22;28839;52.404;9.808;2023-08-06T01:42:46;14.10;99.90
43227;DHT22;28839;52.404;9.808;2023-08-06T01:49:40;14.10;99.90
43227;DHT22;28839;52.404;9.808;2023-08-06T01:56:34;14.10;99.90
43227;DHT22;28839;52.404;9.808;2023-08-06T02:03:29;14.10;99.90
43227;DHT22;28839;52.404;9.808;2023-08-06T02:10:23;14.20;99.90
43227;DHT22;28839;52.404;9.808;2023-08-06T02:17:17;14.20;99.90
43227;DHT22;28839;52.404;9.808;2023-08-06T02:24:12;14.20;99.90
43227;DHT22;28839;52.404;9.808;2023-08-06T02:31:06;14.20;99.90
43227;DHT22;28839;52.404;9.808;2023-08-06T02:38:00;14.20;99.90
43227;DHT22;28839;52.404;9.808;2023-08-06T02:44:55;14.20;99.90
43227;DHT22;28839;52.404;9.808;2023-08-06T02:51:49;14.10;99.90
43227;DHT22;28839;52.404;9.808;2023-08-06T02:58:42;14.10;99.90
43227;DHT22;28839;52.404;9.808;2023-08-06T03:05:38;14.10;99.90
43227;DHT22;28839;52.404;9.808;2023-08-06T03:12:31;13.90;99.90
43227;DHT22;28839;52.404;9.808;2023-08-06T03:19:25;13.80;99.90
43227;DHT22;28839;52.404;9.808;2023-08-06T03:26:20;14.00;99.90
43227;DHT22;28839;52.404;9.808;2023-08-06T03:33:14;13.90;99.90
43227;DHT22;28839;52.404;9.808;2023-08-06T03:40:09;13.90;99.90
43227;DHT22;28839;52.404;9.808;2023-08-06T03:47:05;13.90;99.90
43227;DHT22;28839;52.404;9.808;2023-08-06T03:53:58;13.70;99.90
43227;DHT22;28839;52.404;9.808;2023-08-06T04:00:58;13.70;99.90
43227;DHT22;28839;52.404;9.808;2023-08-06T04:07:53;13.70;99.90
43227;DHT22;28839;52.404;9.808;2023-08-06T04:14:47;13.60;99.90
43227;DHT22;28839;52.404;9.808;2023-08-06T04:21:41;13.70;99.90
43227;DHT22;28839;52.404;9.808;2023-08-06T04:28:36;13.60;99.90
43227;DHT22;28839;52.404;9.808;2023-08-06T04:35:30;13.70;99.90
43227;DHT22;28839;52.404;9.808;2023-08-06T04:42:23;13.70;99.90
43227;DHT22;28839;52.404;9.808;2023-08-06T04:49:20;13.60;99.90
43227;DHT22;28839;52.404;9.808;2023-08-06T04:56:13;13.70;99.90
43227;DHT22;28839;52.404;9.808;2023-08-06T05:03:07;13.80;99.90
43227;DHT22;28839;52.404;9.808;2023-08-06T05:10:03;13.90;99.90
43227;DHT22;28839;52.404;9.808;2023-08-06T05:16:57;14.00;99.90
43227;DHT22;28839;52.404;9.808;2023-08-06T05:23:50;14.10;99.90
43227;DHT22;28839;52.404;9.808;2023-08-06T05:30:46;14.20;99.90
43227;DHT22;28839;52.404;9.808;2023-08-06T05:37:39;14.30;99.90
43227;DHT22;28839;52.404;9.808;2023-08-06T05:44:33;14.40;99.90
43227;DHT22;28839;52.404;9.808;2023-08-06T05:51:28;14.50;99.90
43227;DHT22;28839;52.404;9.808;2023-08-06T05:58:22;14.70;99.90
43227;DHT22;28839;52.404;9.808;2023-08-06T06:05:18;14.70;99.90
43227;DHT22;28839;52.404;9.808;2023-08-06T06:12:13;14.60;99.90
43227;DHT22;28839;52.404;9.808;2023-08-06T06:19:07;14.90;99.90
43227;DHT22;28839;52.404;9.808;2023-08-06T06:26:01;15.20;99.90
43227;DHT22;28839;52.404;9.808;2023-08-06T06:32:56;15.50;99.90
43227;DHT22;28839;52.404;9.808;2023-08-06T06:39:50;15.50;99.90
43227;DHT22;28839;52.404;9.808;2023-08-06T06:46:44;15.90;99.90
43227;DHT22;28839;52.404;9.808;2023-08-06T06:53:39;17.10;99.90
43227;DHT22;28839;52.404;9.808;2023-08-06T07:00:35;18.00;99.90
43227;DHT22;28839;52.404;9.808;2023-08-06T07:07:28;18.80;99.90
43227;DHT22;28839;52.404;9.808;2023-08-06T07:14:25;18.70;99.90
43227;DHT22;28839;52.404;9.808;2023-08-06T07:21:19;19.00;99.90
43227;DHT22;28839;52.404;9.808;2023-08-06T07:28:13;20.50;99.90
43227;DHT22;28839;52.404;9.808;2023-08-06T07:35:09;21.10;99.90
43227;DHT22;28839;52.404;9.808;2023-08-06T07:42:05;21.70;99.90
43227;DHT22;28839;52.404;9.808;2023-08-06T07:48:59;21.30;99.90
43227;DHT22;28839;52.404;9.808;2023-08-06T07:55:55;21.50;99.90
43227;DHT22;28839;52.404;9.808;2023-08-06T08:02:49;21.30;99.90
43227;DHT22;28839;52.404;9.808;2023-08-06T08:09:42;20.70;99.90
43227;DHT22;28839;52.404;9.808;2023-08-06T08:16:37;21.60;99.90
43227;DHT22;28839;52.404;9.808;2023-08-06T08:23:31;21.60;99.90
43227;DHT22;28839;52.404;9.808;2023-08-06T08:30:25;21.20;99.90
43227;DHT22;28839;52.404;9.808;2023-08-06T08:37:21;20.80;99.90
43227;DHT22;28839;52.404;9.808;2023-08-06T08:44:16;21.30;99.90
43227;DHT22;28839;52.404;9.808;2023-08-06T08:51:13;21.70;99.90
43227;DHT22;28839;52.404;9.808;2023-08-06T08:58:08;21.50;99.90
43227;DHT22;28839;52.404;9.808;2023-08-06T09:05:03;21.90;99.90
43227;DHT22;28839;52.404;9.808;2023-08-06T09:12:01;21.60;99.90
43227;DHT22;28839;52.404;9.808;2023-08-06T09:19:06;22.30;99.90
43227;DHT22;28839;52.404;9.808;2023-08-06T09:26:00;22.50;99.90
43227;DHT22;28839;52.404;9.808;2023-08-06T09:32:54;22.60;99.90
43227;DHT22;28839;52.404;9.808;2023-08-06T09:39:49;22.70;99.90
43227;DHT22;28839;52.404;9.808;2023-08-06T09:46:47;22.30;99.90
43227;DHT22;28839;52.404;9.808;2023-08-06T09:53:42;22.30;99.90
43227;DHT22;28839;52.404;9.808;2023-08-06T10:00:37;21.60;99.90
43227;DHT22;28839;52.404;9.808;2023-08-06T10:07:31;20.60;99.90
43227;DHT22;28839;52.404;9.808;2023-08-06T10:14:25;21.40;99.90
43227;DHT22;28839;52.404;9.808;2023-08-06T10:21:23;21.80;99.90
43227;DHT22;28839;52.404;9.808;2023-08-06T10:28:20;22.00;99.90
43227;DHT22;28839;52.404;9.808;2023-08-06T10:35:27;21.50;99.90
43227;DHT22;28839;52.404;9.808;2023-08-06T10:42:27;22.40;99.90
43227;DHT22;28839;52.404;9.808;2023-08-06T10:49:21;22.90;99.90
43227;DHT22;28839;52.404;9.808;2023-08-06T10:56:15;23.20;99.90
43227;DHT22;28839;52.404;9.808;2023-08-06T11:03:11;22.90;99.90
43227;DHT22;28839;52.404;9.808;2023-08-06T11:10:06;22.80;99.90
43227;DHT22;28839;52.404;9.808;2023-08-06T11:17:03;22.80;99.90
43227;DHT22;28839;52.404;9.808;2023-08-06T11:23:59;22.20;99.90
43227;DHT22;28839;52.404;9.808;2023-08-06T11:30:53;21.60;99.90
43227;DHT22;28839;52.404;9.808;2023-08-06T11:37:49;21.50;99.90
43227;DHT22;28839;52.404;9.808;2023-08-06T11:44:44;21.90;99.90
43227;DHT22;28839;52.404;9.808;2023-08-06T11:51:38;21.70;99.90
43227;DHT22;28839;52.404;9.808;2023-08-06T11:58:32;22.20;99.90
43227;DHT22;28839;52.404;9.808;2023-08-06T12:05:31;21.90;99.90
43227;DHT22;28839;52.404;9.808;2023-08-06T12:12:25;22.50;99.90
43227;DHT22;28839;52.404;9.808;2023-08-06T12:19:19;22.40;99.90
43227;DHT22;28839;52.404;9.808;2023-08-06T12:26:14;22.50;99.90
43227;DHT22;28839;52.404;9.808;2023-08-06T12:33:08;22.70;99.90
43227;DHT22;28839;52.404;9.808;2023-08-06T12:40:02;22.40;99.90
43227;DHT22;28839;52.404;9.808;2023-08-06T12:46:57;22.60;99.90
43227;DHT22;28839;52.404;9.808;2023-08-06T12:53:51;22.30;99.90
43227;DHT22;28839;52.404;9.808;2023-08-06T13:00:45;21.80;99.90
43227;DHT22;28839;52.404;9.808;2023-08-06T13:07:40;21.60;99.90
43227;DHT22;28839;52.404;9.808;2023-08-06T13:14:34;21.90;99.90
43227;DHT22;28839;52.404;9.808;2023-08-06T13:21:30;21.80;99.90
43227;DHT22;28839;52.404;9.808;2023-08-06T13:28:26;21.60;99.90
43227;DHT22;28839;52.404;9.808;2023-08-06T13:35:20;21.70;99.90
43227;DHT22;28839;52.404;9.808;2023-08-06T13:42:13;21.80;99.90
43227;DHT22;28839;52.404;9.808;2023-08-06T13:49:09;21.90;99.90
43227;DHT22;28839;52.404;9.808;2023-08-06T13:56:03;21.60;99.90
43227;DHT22;28839;52.404;9.808;2023-08-06T14:02:57;21.80;99.90
43227;DHT22;28839;52.404;9.808;2023-08-06T14:09:52;22.10;99.90
43227;DHT22;28839;52.404;9.808;2023-08-06T14:16:46;21.90;99.90
43227;DHT22;28839;52.404;9.808;2023-08-06T14:23:40;21.70;99.90
43227;DHT22;28839;52.404;9.808;2023-08-06T14:30:36;21.60;99.90
43227;DHT22;28839;52.404;9.808;2023-08-06T14:37:30;21.60;99.90
43227;DHT22;28839;52.404;9.808;2023-08-06T14:44:23;21.40;99.90
43227;DHT22;28839;52.404;9.808;2023-08-06T14:51:18;21.40;99.90
43227;DHT22;28839;52.404;9.808;2023-08-06T14:58:12;21.20;99.90
43227;DHT22;28839;52.404;9.808;2023-08-06T15:05:07;21.30;99.90
43227;DHT22;28839;52.404;9.808;2023-08-06T15:12:02;21.20;99.90
43227;DHT22;28839;52.404;9.808;2023-08-06T15:18:56;21.20;99.90
43227;DHT22;28839;52.404;9.808;2023-08-06T15:25:50;20.80;99.90
43227;DHT22;28839;52.404;9.808;2023-08-06T15:32:45;20.70;99.90
43227;DHT22;28839;52.404;9.808;2023-08-06T15:39:39;20.70;99.90
43227;DHT22;28839;52.404;9.808;2023-08-06T15:46:34;20.80;99.90
43227;DHT22;28839;52.404;9.808;2023-08-06T15:53:30;20.70;99.90
43227;DHT22;28839;52.404;9.808;2023-08-06T16:00:24;20.50;99.90
43227;DHT22;28839;52.404;9.808;2023-08-06T16:07:18;20.50;99.90
43227;DHT22;28839;52.404;9.808;2023-08-06T16:14:13;20.70;99.90
43227;DHT22;28839;52.404;9.808;2023-08-06T16:21:07;21.00;99.90
43227;DHT22;28839;52.404;9.808;2023-08-06T16:28:01;21.60;99.90
43227;DHT22;28839;52.404;9.808;2023-08-06T16:34:56;21.40;99.90
43227;DHT22;28839;52.404;9.808;2023-08-06T16:41:50;20.90;99.90
43227;DHT22;28839;52.404;9.808;2023-08-06T16:48:44;20.70;99.90
43227;DHT22;28839;52.404;9.808;2023-08-06T16:55:39;20.70;99.90
43227;DHT22;28839;52.404;9.808;2023-08-06T17:02:33;20.70;99.90
43227;DHT22;28839;52.404;9.808;2023-08-06T17:09:27;20.70;99.90
43227;DHT22;28839;52.404;9.808;2023-08-06T17:16:22;20.80;99.90
43227;DHT22;28839;52.404;9.808;2023-08-06T17:23:16;20.60;99.90
43227;DHT22;28839;52.404;9.808;2023-08-06T17:30:10;20.20;99.90
43227;DHT22;28839;52.404;9.808;2023-08-06T17:37:05;20.10;99.90
43227;DHT22;28839;52.404;9.808;2023-08-06T17:43:59;20.10;99.90
43227;DHT22;28839;52.404;9.808;2023-08-06T17:50:53;20.00;99.90
43227;DHT22;28839;52.404;9.808;2023-08-06T17:57:48;19.90;99.90
43227;DHT22;28839;52.404;9.808;2023-08-06T18:04:42;19.70;99.90
43227;DHT22;28839;52.404;9.808;2023-08-06T18:11:36;19.50;99.90
43227;DHT22;28839;52.404;9.808;2023-08-06T18:18:31;19.40;99.90
43227;DHT22;28839;52.404;9.808;2023-08-06T18:25:25;19.30;99.90
43227;DHT22;28839;52.404;9.808;2023-08-06T18:32:19;19.20;99.90
43227;DHT22;28839;52.404;9.808;2023-08-06T18:39:15;18.90;99.90
43227;DHT22;28839;52.404;9.808;2023-08-06T18:46:08;18.80;99.90
43227;DHT22;28839;52.404;9.808;2023-08-06T18:53:02;18.60;99.90
43227;DHT22;28839;52.404;9.808;2023-08-06T18:59:58;18.40;99.90
43227;DHT22;28839;52.404;9.808;2023-08-06T19:06:52;18.40;99.90
43227;DHT22;28839;52.404;9.808;2023-08-06T19:13:45;18.50;99.90
43227;DHT22;28839;52.404;9.808;2023-08-06T19:20:42;18.50;99.90
43227;DHT22;28839;52.404;9.808;2023-08-06T19:27:36;18.40;99.90
43227;DHT22;28839;52.404;9.808;2023-08-06T19:34:30;18.30;99.90
43227;DHT22;28839;52.404;9.808;2023-08-06T19:41:25;18.20;99.90
43227;DHT22;28839;52.404;9.808;2023-08-06T19:48:19;17.90;99.90
43227;DHT22;28839;52.404;9.808;2023-08-06T19:55:13;17.70;99.90
43227;DHT22;28839;52.404;9.808;2023-08-06T20:02:08;17.50;99.90
43227;DHT22;28839;52.404;9.808;2023-08-06T20:09:02;17.30;99.90
43227;DHT22;28839;52.404;9.808;2023-08-06T20:15:56;17.20;99.90
43227;DHT22;28839;52.404;9.808;2023-08-06T20:22:51;17.00;99.90
43227;DHT22;28839;52.404;9.808;2023-08-06T20:29:45;16.90;99.90
43227;DHT22;28839;52.404;9.808;2023-08-06T20:36:39;16.80;99.90
43227;DHT22;28839;52.404;9.808;2023-08-06T20:43:34;16.60;99.90
43227;DHT22;28839;52.404;9.808;2023-08-06T20:50:29;16.60;99.90
43227;DHT22;28839;52.404;9.808;2023-08-06T20:57:22;16.60;99.90
43227;DHT22;28839;52.404;9.808;2023-08-06T21:04:18;16.60;99.90
43227;DHT22;28839;52.404;9.808;2023-08-06T21:11:11;16.40;99.90
43227;DHT22;28839;52.404;9.808;2023-08-06T21:18:08;16.40;99.90
43227;DHT22;28839;52.404;9.808;2023-08-06T21:25:04;16.20;99.90
43227;DHT22;28839;52.404;9.808;2023-08-06T21:31:58;16.20;99.90
43227;DHT22;28839;52.404;9.808;2023-08-06T21:38:51;16.30;99.90
43227;DHT22;28839;52.404;9.808;2023-08-06T21:45:48;16.20;99.90
43227;DHT22;28839;52.404;9.808;2023-08-06T21:52:41;16.10;99.90
43227;DHT22;28839;52.404;9.808;2023-08-06T21:59:35;16.20;99.90
43227;DHT22;28839;52.404;9.808;2023-08-06T22:06:30;16.10;99.90
43227;DHT22;28839;52.404;9.808;2023-08-06T22:13:24;16.10;99.90
43227;DHT22;28839;52.404;9.808;2023-08-06T22:20:18;15.90;99.90
43227;DHT22;28839;52.404;9.808;2023-08-06T22:27:14;15.90;99.90
43227;DHT22;28839;52.404;9.808;2023-08-06T22:34:08;15.80;99.90
43227;DHT22;28839;52.404;9.808;2023-08-06T22:41:02;15.70;99.90
43227;DHT22;28839;52.404;9.808;2023-08-06T22:47:57;15.70;99.90
43227;DHT22;28839;52.404;9.808;2023-08-06T22:54:51;15.60;99.90
43227;DHT22;28839;52.404;9.808;2023-08-06T23:01:45;15.50;99.90
43227;DHT22;28839;52.404;9.808;2023-08-06T23:08:40;15.60;99.90
43227;DHT22;28839;52.404;9.808;2023-08-06T23:15:34;15.60;99.90
43227;DHT22;28839;52.404;9.808;2023-08-06T23:22:28;15.50;99.90
43227;DHT22;28839;52.404;9.808;2023-08-06T23:29:23;15.60;99.90
43227;DHT22;28839;52.404;9.808;2023-08-06T23:36:17;15.60;99.90
43227;DHT22;28839;52.404;9.808;2023-08-06T23:43:11;15.60;99.90
43227;DHT22;28839;52.404;9.808;2023-08-06T23:50:07;15.70;99.90
43227;DHT22;28839;52.404;9.808;2023-08-06T23:57:01;15.70;99.90
